sensor_id;sensor_type;location;lat;lon;timestamp;P1;durP1;ratioP1;P2;durP2;ratioP2
54247;SDS011;40161;39.768;2.722;2023-12-20T00:01:00;15.35;;;10.10;;
54247;SDS011;40161;39.768;2.722;2023-12-20T00:03:26;13.88;;;9.93;;
54247;SDS011;40161;39.768;2.722;2023-12-20T00:05:51;16.77;;;11.20;;
54247;SDS011;40161;39.768;2.722;2023-12-20T00:08:17;14.00;;;9.90;;
54247;SDS011;40161;39.768;2.722;2023-12-20T00:10:43;12.23;;;7.88;;
54247;SDS011;40161;39.768;2.722;2023-12-20T00:13:09;12.65;;;9.07;;
54247;SDS011;40161;39.768;2.722;2023-12-20T00:15:35;13.63;;;9.35;;
54247;SDS011;40161;39.768;2.722;2023-12-20T00:18:01;13.20;;;8.60;;
54247;SDS011;40161;39.768;2.722;2023-12-20T00:20:27;11.73;;;7.45;;
54247;SDS011;40161;39.768;2.722;2023-12-20T00:22:54;11.05;;;7.45;;
54247;SDS011;40161;39.768;2.722;2023-12-20T00:25:22;11.63;;;7.72;;
54247;SDS011;40161;39.768;2.722;2023-12-20T00:27:48;12.68;;;8.50;;
54247;SDS011;40161;39.768;2.722;2023-12-20T00:30:14;11.77;;;7.97;;
54247;SDS011;40161;39.768;2.722;2023-12-20T00:32:39;11.88;;;7.53;;
54247;SDS011;40161;39.768;2.722;2023-12-20T00:35:11;11.35;;;7.47;;
54247;SDS011;40161;39.768;2.722;2023-12-20T00:37:37;10.15;;;6.88;;
54247;SDS011;40161;39.768;2.722;2023-12-20T00:40:03;10.85;;;6.82;;
54247;SDS011;40161;39.768;2.722;2023-12-20T00:42:29;11.25;;;6.95;;
54247;SDS011;40161;39.768;2.722;2023-12-20T00:44:55;9.40;;;5.60;;
54247;SDS011;40161;39.768;2.722;2023-12-20T00:47:20;9.02;;;5.00;;
54247;SDS011;40161;39.768;2.722;2023-12-20T00:49:47;8.77;;;4.82;;
54247;SDS011;40161;39.768;2.722;2023-12-20T00:52:12;9.85;;;5.55;;
54247;SDS011;40161;39.768;2.722;2023-12-20T00:54:38;9.90;;;5.30;;
54247;SDS011;40161;39.768;2.722;2023-12-20T00:57:04;8.90;;;5.32;;
54247;SDS011;40161;39.768;2.722;2023-12-20T00:59:29;11.07;;;6.35;;
54247;SDS011;40161;39.768;2.722;2023-12-20T01:01:55;11.43;;;6.72;;
54247;SDS011;40161;39.768;2.722;2023-12-20T01:04:21;9.20;;;5.80;;
54247;SDS011;40161;39.768;2.722;2023-12-20T01:06:46;9.50;;;5.13;;
54247;SDS011;40161;39.768;2.722;2023-12-20T01:09:13;7.78;;;4.28;;
54247;SDS011;40161;39.768;2.722;2023-12-20T01:11:39;6.45;;;4.00;;
54247;SDS011;40161;39.768;2.722;2023-12-20T01:14:05;6.30;;;3.80;;
54247;SDS011;40161;39.768;2.722;2023-12-20T01:16:30;7.15;;;3.97;;
54247;SDS011;40161;39.768;2.722;2023-12-20T01:18:56;6.05;;;3.47;;
54247;SDS011;40161;39.768;2.722;2023-12-20T01:21:21;6.22;;;3.42;;
54247;SDS011;40161;39.768;2.722;2023-12-20T01:23:47;7.45;;;3.80;;
54247;SDS011;40161;39.768;2.722;2023-12-20T01:26:13;7.07;;;3.85;;
54247;SDS011;40161;39.768;2.722;2023-12-20T01:28:39;6.63;;;3.42;;
54247;SDS011;40161;39.768;2.722;2023-12-20T01:31:05;5.80;;;3.10;;
54247;SDS011;40161;39.768;2.722;2023-12-20T01:33:31;5.38;;;2.45;;
54247;SDS011;40161;39.768;2.722;2023-12-20T01:35:56;6.28;;;3.47;;
54247;SDS011;40161;39.768;2.722;2023-12-20T01:38:22;8.98;;;5.18;;
54247;SDS011;40161;39.768;2.722;2023-12-20T01:40:48;8.50;;;5.07;;
54247;SDS011;40161;39.768;2.722;2023-12-20T01:43:13;8.40;;;4.97;;
54247;SDS011;40161;39.768;2.722;2023-12-20T01:45:39;10.80;;;5.07;;
54247;SDS011;40161;39.768;2.722;2023-12-20T01:48:05;9.00;;;5.15;;
54247;SDS011;40161;39.768;2.722;2023-12-20T01:50:32;11.25;;;5.63;;
54247;SDS011;40161;39.768;2.722;2023-12-20T01:53:02;8.48;;;5.05;;
54247;SDS011;40161;39.768;2.722;2023-12-20T01:55:32;7.20;;;3.90;;
54247;SDS011;40161;39.768;2.722;2023-12-20T01:57:59;8.18;;;4.28;;
54247;SDS011;40161;39.768;2.722;2023-12-20T02:00:28;8.45;;;4.15;;
54247;SDS011;40161;39.768;2.722;2023-12-20T02:02:55;7.55;;;4.30;;
54247;SDS011;40161;39.768;2.722;2023-12-20T02:05:24;6.43;;;3.20;;
54247;SDS011;40161;39.768;2.722;2023-12-20T02:07:50;7.68;;;4.10;;
54247;SDS011;40161;39.768;2.722;2023-12-20T02:10:16;5.90;;;3.28;;
54247;SDS011;40161;39.768;2.722;2023-12-20T02:12:42;6.15;;;3.00;;
54247;SDS011;40161;39.768;2.722;2023-12-20T02:15:07;6.35;;;3.05;;
54247;SDS011;40161;39.768;2.722;2023-12-20T02:17:33;4.43;;;2.40;;
54247;SDS011;40161;39.768;2.722;2023-12-20T02:19:59;5.15;;;2.80;;
54247;SDS011;40161;39.768;2.722;2023-12-20T02:22:25;4.28;;;2.15;;
54247;SDS011;40161;39.768;2.722;2023-12-20T02:24:50;7.07;;;3.35;;
54247;SDS011;40161;39.768;2.722;2023-12-20T02:27:17;5.70;;;3.55;;
54247;SDS011;40161;39.768;2.722;2023-12-20T02:29:44;6.38;;;3.60;;
54247;SDS011;40161;39.768;2.722;2023-12-20T02:32:12;5.85;;;3.10;;
54247;SDS011;40161;39.768;2.722;2023-12-20T02:34:37;7.30;;;2.70;;
54247;SDS011;40161;39.768;2.722;2023-12-20T02:37:03;4.57;;;2.33;;
54247;SDS011;40161;39.768;2.722;2023-12-20T02:39:29;5.35;;;2.50;;
54247;SDS011;40161;39.768;2.722;2023-12-20T02:41:55;5.72;;;3.03;;
54247;SDS011;40161;39.768;2.722;2023-12-20T02:44:20;5.93;;;2.55;;
54247;SDS011;40161;39.768;2.722;2023-12-20T02:46:46;4.43;;;2.50;;
54247;SDS011;40161;39.768;2.722;2023-12-20T02:49:11;5.07;;;2.50;;
54247;SDS011;40161;39.768;2.722;2023-12-20T02:51:37;5.75;;;2.85;;
54247;SDS011;40161;39.768;2.722;2023-12-20T02:54:05;6.85;;;2.95;;
54247;SDS011;40161;39.768;2.722;2023-12-20T02:56:34;5.53;;;2.92;;
54247;SDS011;40161;39.768;2.722;2023-12-20T02:59:00;5.07;;;3.10;;
54247;SDS011;40161;39.768;2.722;2023-12-20T03:01:26;5.28;;;2.70;;
54247;SDS011;40161;39.768;2.722;2023-12-20T03:03:52;4.90;;;2.90;;
54247;SDS011;40161;39.768;2.722;2023-12-20T03:06:18;5.53;;;2.92;;
54247;SDS011;40161;39.768;2.722;2023-12-20T03:08:44;5.15;;;2.85;;
54247;SDS011;40161;39.768;2.722;2023-12-20T03:11:10;5.40;;;2.70;;
54247;SDS011;40161;39.768;2.722;2023-12-20T03:13:35;5.82;;;3.17;;
54247;SDS011;40161;39.768;2.722;2023-12-20T03:16:01;5.35;;;2.70;;
54247;SDS011;40161;39.768;2.722;2023-12-20T03:18:33;5.75;;;3.33;;
54247;SDS011;40161;39.768;2.722;2023-12-20T03:20:59;6.75;;;3.47;;
54247;SDS011;40161;39.768;2.722;2023-12-20T03:23:24;6.78;;;3.78;;
54247;SDS011;40161;39.768;2.722;2023-12-20T03:25:51;5.38;;;3.10;;
54247;SDS011;40161;39.768;2.722;2023-12-20T03:28:17;5.72;;;2.85;;
54247;SDS011;40161;39.768;2.722;2023-12-20T03:30:42;4.97;;;3.03;;
54247;SDS011;40161;39.768;2.722;2023-12-20T03:33:08;21.92;;;13.35;;
54247;SDS011;40161;39.768;2.722;2023-12-20T03:35:34;23.00;;;13.73;;
54247;SDS011;40161;39.768;2.722;2023-12-20T03:37:59;13.55;;;8.65;;
54247;SDS011;40161;39.768;2.722;2023-12-20T03:40:25;15.30;;;9.15;;
54247;SDS011;40161;39.768;2.722;2023-12-20T03:42:51;11.50;;;7.13;;
54247;SDS011;40161;39.768;2.722;2023-12-20T03:45:16;8.95;;;5.25;;
54247;SDS011;40161;39.768;2.722;2023-12-20T03:47:42;6.32;;;4.03;;
54247;SDS011;40161;39.768;2.722;2023-12-20T03:50:07;6.25;;;3.45;;
54247;SDS011;40161;39.768;2.722;2023-12-20T03:52:33;5.53;;;3.42;;
54247;SDS011;40161;39.768;2.722;2023-12-20T03:54:59;6.25;;;3.45;;
54247;SDS011;40161;39.768;2.722;2023-12-20T03:57:24;7.35;;;4.10;;
54247;SDS011;40161;39.768;2.722;2023-12-20T03:59:50;18.17;;;11.45;;
54247;SDS011;40161;39.768;2.722;2023-12-20T04:02:15;6.13;;;3.42;;
54247;SDS011;40161;39.768;2.722;2023-12-20T04:04:43;7.95;;;4.72;;
54247;SDS011;40161;39.768;2.722;2023-12-20T04:07:08;8.70;;;6.20;;
54247;SDS011;40161;39.768;2.722;2023-12-20T04:09:34;8.88;;;6.30;;
54247;SDS011;40161;39.768;2.722;2023-12-20T04:12:00;20.25;;;13.32;;
54247;SDS011;40161;39.768;2.722;2023-12-20T04:14:25;8.10;;;5.60;;
54247;SDS011;40161;39.768;2.722;2023-12-20T04:16:51;6.65;;;4.03;;
54247;SDS011;40161;39.768;2.722;2023-12-20T04:19:17;6.90;;;3.60;;
54247;SDS011;40161;39.768;2.722;2023-12-20T04:21:43;6.93;;;5.07;;
54247;SDS011;40161;39.768;2.722;2023-12-20T04:24:08;6.03;;;3.63;;
54247;SDS011;40161;39.768;2.722;2023-12-20T04:26:34;5.30;;;3.30;;
54247;SDS011;40161;39.768;2.722;2023-12-20T04:28:59;5.82;;;3.25;;
54247;SDS011;40161;39.768;2.722;2023-12-20T04:31:25;5.07;;;3.10;;
54247;SDS011;40161;39.768;2.722;2023-12-20T04:33:50;6.05;;;3.65;;
54247;SDS011;40161;39.768;2.722;2023-12-20T04:36:16;7.13;;;3.97;;
54247;SDS011;40161;39.768;2.722;2023-12-20T04:38:42;6.82;;;4.22;;
54247;SDS011;40161;39.768;2.722;2023-12-20T04:41:07;9.00;;;5.57;;
54247;SDS011;40161;39.768;2.722;2023-12-20T04:43:33;8.13;;;5.03;;
54247;SDS011;40161;39.768;2.722;2023-12-20T04:45:59;6.00;;;3.85;;
54247;SDS011;40161;39.768;2.722;2023-12-20T04:48:24;25.55;;;12.25;;
54247;SDS011;40161;39.768;2.722;2023-12-20T04:50:50;22.42;;;12.88;;
54247;SDS011;40161;39.768;2.722;2023-12-20T04:53:15;14.35;;;7.68;;
54247;SDS011;40161;39.768;2.722;2023-12-20T04:55:41;10.57;;;5.75;;
54247;SDS011;40161;39.768;2.722;2023-12-20T04:58:06;5.50;;;3.45;;
54247;SDS011;40161;39.768;2.722;2023-12-20T05:00:32;5.03;;;3.10;;
54247;SDS011;40161;39.768;2.722;2023-12-20T05:02:58;6.55;;;4.22;;
54247;SDS011;40161;39.768;2.722;2023-12-20T05:05:24;6.90;;;3.85;;
54247;SDS011;40161;39.768;2.722;2023-12-20T05:07:49;5.65;;;3.40;;
54247;SDS011;40161;39.768;2.722;2023-12-20T05:10:15;5.95;;;3.40;;
54247;SDS011;40161;39.768;2.722;2023-12-20T05:12:41;5.82;;;3.20;;
54247;SDS011;40161;39.768;2.722;2023-12-20T05:15:07;7.32;;;4.60;;
54247;SDS011;40161;39.768;2.722;2023-12-20T05:17:33;8.23;;;5.28;;
54247;SDS011;40161;39.768;2.722;2023-12-20T05:19:58;8.38;;;5.88;;
54247;SDS011;40161;39.768;2.722;2023-12-20T05:22:24;9.48;;;6.82;;
54247;SDS011;40161;39.768;2.722;2023-12-20T05:24:50;6.90;;;5.03;;
54247;SDS011;40161;39.768;2.722;2023-12-20T05:27:15;12.00;;;9.48;;
54247;SDS011;40161;39.768;2.722;2023-12-20T05:29:41;6.70;;;4.60;;
54247;SDS011;40161;39.768;2.722;2023-12-20T05:32:06;5.40;;;3.13;;
54247;SDS011;40161;39.768;2.722;2023-12-20T05:34:32;5.40;;;3.10;;
54247;SDS011;40161;39.768;2.722;2023-12-20T05:36:58;5.75;;;3.78;;
54247;SDS011;40161;39.768;2.722;2023-12-20T05:39:23;6.57;;;3.78;;
54247;SDS011;40161;39.768;2.722;2023-12-20T05:41:49;9.18;;;3.97;;
54247;SDS011;40161;39.768;2.722;2023-12-20T05:44:14;6.60;;;3.72;;
54247;SDS011;40161;39.768;2.722;2023-12-20T05:46:40;5.55;;;3.72;;
54247;SDS011;40161;39.768;2.722;2023-12-20T05:49:06;6.55;;;3.63;;
54247;SDS011;40161;39.768;2.722;2023-12-20T05:51:32;7.85;;;3.28;;
54247;SDS011;40161;39.768;2.722;2023-12-20T05:53:58;6.68;;;3.35;;
54247;SDS011;40161;39.768;2.722;2023-12-20T05:56:23;6.18;;;4.13;;
54247;SDS011;40161;39.768;2.722;2023-12-20T05:58:49;10.80;;;6.78;;
54247;SDS011;40161;39.768;2.722;2023-12-20T06:01:15;16.20;;;8.18;;
54247;SDS011;40161;39.768;2.722;2023-12-20T06:03:42;10.50;;;6.35;;
54247;SDS011;40161;39.768;2.722;2023-12-20T06:06:08;16.10;;;9.13;;
54247;SDS011;40161;39.768;2.722;2023-12-20T06:08:34;19.13;;;9.77;;
54247;SDS011;40161;39.768;2.722;2023-12-20T06:11:00;18.90;;;10.52;;
54247;SDS011;40161;39.768;2.722;2023-12-20T06:13:25;12.88;;;7.60;;
54247;SDS011;40161;39.768;2.722;2023-12-20T06:15:52;13.00;;;7.18;;
54247;SDS011;40161;39.768;2.722;2023-12-20T06:18:19;18.88;;;10.90;;
54247;SDS011;40161;39.768;2.722;2023-12-20T06:20:45;18.23;;;10.38;;
54247;SDS011;40161;39.768;2.722;2023-12-20T06:23:10;18.50;;;10.77;;
54247;SDS011;40161;39.768;2.722;2023-12-20T06:25:36;25.23;;;17.25;;
54247;SDS011;40161;39.768;2.722;2023-12-20T06:28:01;18.80;;;12.52;;
54247;SDS011;40161;39.768;2.722;2023-12-20T06:30:27;15.40;;;8.80;;
54247;SDS011;40161;39.768;2.722;2023-12-20T06:32:53;18.90;;;9.60;;
54247;SDS011;40161;39.768;2.722;2023-12-20T06:35:20;17.65;;;9.00;;
54247;SDS011;40161;39.768;2.722;2023-12-20T06:37:45;11.50;;;6.18;;
54247;SDS011;40161;39.768;2.722;2023-12-20T06:40:11;11.75;;;6.25;;
54247;SDS011;40161;39.768;2.722;2023-12-20T06:42:37;9.43;;;5.38;;
54247;SDS011;40161;39.768;2.722;2023-12-20T06:45:02;9.20;;;5.43;;
54247;SDS011;40161;39.768;2.722;2023-12-20T06:47:28;9.95;;;4.93;;
54247;SDS011;40161;39.768;2.722;2023-12-20T06:49:54;10.43;;;5.28;;
54247;SDS011;40161;39.768;2.722;2023-12-20T06:52:20;13.48;;;7.40;;
54247;SDS011;40161;39.768;2.722;2023-12-20T06:54:45;11.80;;;6.10;;
54247;SDS011;40161;39.768;2.722;2023-12-20T06:57:11;11.02;;;4.82;;
54247;SDS011;40161;39.768;2.722;2023-12-20T06:59:40;12.32;;;5.63;;
54247;SDS011;40161;39.768;2.722;2023-12-20T07:02:06;10.00;;;5.15;;
54247;SDS011;40161;39.768;2.722;2023-12-20T07:04:31;7.20;;;4.55;;
54247;SDS011;40161;39.768;2.722;2023-12-20T07:06:57;9.20;;;5.05;;
54247;SDS011;40161;39.768;2.722;2023-12-20T07:09:25;8.60;;;5.35;;
54247;SDS011;40161;39.768;2.722;2023-12-20T07:11:52;8.55;;;4.93;;
54247;SDS011;40161;39.768;2.722;2023-12-20T07:14:18;13.57;;;5.60;;
54247;SDS011;40161;39.768;2.722;2023-12-20T07:16:43;14.13;;;4.97;;
54247;SDS011;40161;39.768;2.722;2023-12-20T07:19:09;10.10;;;4.70;;
54247;SDS011;40161;39.768;2.722;2023-12-20T07:21:35;11.90;;;4.55;;
54247;SDS011;40161;39.768;2.722;2023-12-20T07:24:00;8.82;;;3.92;;
54247;SDS011;40161;39.768;2.722;2023-12-20T07:26:26;7.90;;;3.97;;
54247;SDS011;40161;39.768;2.722;2023-12-20T07:28:51;6.47;;;3.55;;
54247;SDS011;40161;39.768;2.722;2023-12-20T07:31:17;7.93;;;4.18;;
54247;SDS011;40161;39.768;2.722;2023-12-20T07:33:42;7.80;;;4.55;;
54247;SDS011;40161;39.768;2.722;2023-12-20T07:36:08;9.13;;;4.38;;
54247;SDS011;40161;39.768;2.722;2023-12-20T07:38:34;7.68;;;4.80;;
54247;SDS011;40161;39.768;2.722;2023-12-20T07:41:00;12.38;;;6.32;;
54247;SDS011;40161;39.768;2.722;2023-12-20T07:43:25;12.32;;;7.40;;
54247;SDS011;40161;39.768;2.722;2023-12-20T07:45:51;15.38;;;10.43;;
54247;SDS011;40161;39.768;2.722;2023-12-20T07:48:16;19.33;;;11.98;;
54247;SDS011;40161;39.768;2.722;2023-12-20T07:50:42;16.38;;;9.40;;
54247;SDS011;40161;39.768;2.722;2023-12-20T07:53:08;16.98;;;10.65;;
54247;SDS011;40161;39.768;2.722;2023-12-20T07:55:33;17.30;;;10.38;;
54247;SDS011;40161;39.768;2.722;2023-12-20T07:57:59;17.30;;;11.02;;
54247;SDS011;40161;39.768;2.722;2023-12-20T08:00:25;15.70;;;10.13;;
54247;SDS011;40161;39.768;2.722;2023-12-20T08:02:51;16.95;;;11.77;;
54247;SDS011;40161;39.768;2.722;2023-12-20T08:05:17;18.08;;;12.00;;
54247;SDS011;40161;39.768;2.722;2023-12-20T08:07:42;21.75;;;12.88;;
54247;SDS011;40161;39.768;2.722;2023-12-20T08:10:08;18.30;;;11.57;;
54247;SDS011;40161;39.768;2.722;2023-12-20T08:12:34;19.02;;;13.52;;
54247;SDS011;40161;39.768;2.722;2023-12-20T08:14:59;20.55;;;12.25;;
54247;SDS011;40161;39.768;2.722;2023-12-20T08:17:26;19.55;;;11.98;;
54247;SDS011;40161;39.768;2.722;2023-12-20T08:19:51;19.33;;;13.15;;
54247;SDS011;40161;39.768;2.722;2023-12-20T08:22:17;22.55;;;15.75;;
54247;SDS011;40161;39.768;2.722;2023-12-20T08:24:43;22.42;;;16.10;;
54247;SDS011;40161;39.768;2.722;2023-12-20T08:27:08;25.60;;;20.10;;
54247;SDS011;40161;39.768;2.722;2023-12-20T08:29:34;24.35;;;18.00;;
54247;SDS011;40161;39.768;2.722;2023-12-20T08:32:00;20.27;;;13.48;;
54247;SDS011;40161;39.768;2.722;2023-12-20T08:34:27;18.88;;;14.32;;
54247;SDS011;40161;39.768;2.722;2023-12-20T08:36:53;21.98;;;14.50;;
54247;SDS011;40161;39.768;2.722;2023-12-20T08:39:19;35.63;;;27.35;;
54247;SDS011;40161;39.768;2.722;2023-12-20T08:41:44;35.63;;;27.42;;
54247;SDS011;40161;39.768;2.722;2023-12-20T08:44:10;27.90;;;20.20;;
54247;SDS011;40161;39.768;2.722;2023-12-20T08:46:36;31.20;;;22.48;;
54247;SDS011;40161;39.768;2.722;2023-12-20T08:49:02;28.77;;;22.02;;
54247;SDS011;40161;39.768;2.722;2023-12-20T08:51:28;30.02;;;22.55;;
54247;SDS011;40161;39.768;2.722;2023-12-20T08:53:54;32.92;;;23.40;;
54247;SDS011;40161;39.768;2.722;2023-12-20T08:56:20;28.42;;;22.90;;
54247;SDS011;40161;39.768;2.722;2023-12-20T08:58:46;32.70;;;23.80;;
54247;SDS011;40161;39.768;2.722;2023-12-20T09:01:12;37.72;;;26.08;;
54247;SDS011;40161;39.768;2.722;2023-12-20T09:03:38;42.45;;;30.83;;
54247;SDS011;40161;39.768;2.722;2023-12-20T09:06:04;48.08;;;34.30;;
54247;SDS011;40161;39.768;2.722;2023-12-20T09:08:30;73.40;;;52.95;;
54247;SDS011;40161;39.768;2.722;2023-12-20T09:10:56;72.07;;;49.28;;
54247;SDS011;40161;39.768;2.722;2023-12-20T09:13:22;64.35;;;43.60;;
54247;SDS011;40161;39.768;2.722;2023-12-20T09:15:53;82.35;;;57.05;;
54247;SDS011;40161;39.768;2.722;2023-12-20T09:18:20;66.95;;;47.75;;
54247;SDS011;40161;39.768;2.722;2023-12-20T09:20:45;42.85;;;33.60;;
54247;SDS011;40161;39.768;2.722;2023-12-20T09:23:11;35.47;;;26.85;;
54247;SDS011;40161;39.768;2.722;2023-12-20T09:25:36;34.90;;;24.35;;
54247;SDS011;40161;39.768;2.722;2023-12-20T09:28:02;35.72;;;23.50;;
54247;SDS011;40161;39.768;2.722;2023-12-20T09:30:28;29.25;;;18.25;;
54247;SDS011;40161;39.768;2.722;2023-12-20T09:32:54;23.27;;;15.10;;
54247;SDS011;40161;39.768;2.722;2023-12-20T09:35:20;20.73;;;12.32;;
54247;SDS011;40161;39.768;2.722;2023-12-20T09:37:46;16.83;;;10.50;;
54247;SDS011;40161;39.768;2.722;2023-12-20T09:40:16;19.60;;;13.15;;
54247;SDS011;40161;39.768;2.722;2023-12-20T09:45:22;28.70;;;16.50;;
54247;SDS011;40161;39.768;2.722;2023-12-20T09:47:54;17.27;;;11.02;;
54247;SDS011;40161;39.768;2.722;2023-12-20T09:50:20;17.83;;;9.48;;
54247;SDS011;40161;39.768;2.722;2023-12-20T09:52:50;10.70;;;6.47;;
54247;SDS011;40161;39.768;2.722;2023-12-20T09:55:17;10.05;;;5.72;;
54247;SDS011;40161;39.768;2.722;2023-12-20T09:57:44;10.10;;;6.82;;
54247;SDS011;40161;39.768;2.722;2023-12-20T10:00:10;33.75;;;18.70;;
54247;SDS011;40161;39.768;2.722;2023-12-20T10:02:37;30.17;;;17.40;;
54247;SDS011;40161;39.768;2.722;2023-12-20T10:05:06;29.83;;;17.40;;
54247;SDS011;40161;39.768;2.722;2023-12-20T10:07:34;21.83;;;11.50;;
54247;SDS011;40161;39.768;2.722;2023-12-20T10:10:00;13.00;;;6.88;;
54247;SDS011;40161;39.768;2.722;2023-12-20T10:12:27;10.55;;;5.47;;
54247;SDS011;40161;39.768;2.722;2023-12-20T10:14:53;8.98;;;4.70;;
54247;SDS011;40161;39.768;2.722;2023-12-20T10:17:19;8.60;;;4.55;;
54247;SDS011;40161;39.768;2.722;2023-12-20T10:19:46;8.70;;;4.50;;
54247;SDS011;40161;39.768;2.722;2023-12-20T10:22:12;8.88;;;5.50;;
54247;SDS011;40161;39.768;2.722;2023-12-20T10:24:37;7.45;;;4.78;;
54247;SDS011;40161;39.768;2.722;2023-12-20T10:27:05;8.93;;;5.50;;
54247;SDS011;40161;39.768;2.722;2023-12-20T10:29:35;12.00;;;8.20;;
54247;SDS011;40161;39.768;2.722;2023-12-20T10:34:52;17.80;;;11.27;;
54247;SDS011;40161;39.768;2.722;2023-12-20T10:37:19;19.63;;;13.32;;
54247;SDS011;40161;39.768;2.722;2023-12-20T10:39:48;21.05;;;13.57;;
54247;SDS011;40161;39.768;2.722;2023-12-20T10:42:17;21.95;;;13.70;;
54247;SDS011;40161;39.768;2.722;2023-12-20T10:44:46;18.25;;;12.85;;
54247;SDS011;40161;39.768;2.722;2023-12-20T10:47:13;18.83;;;13.10;;
54247;SDS011;40161;39.768;2.722;2023-12-20T10:49:38;18.65;;;11.65;;
54247;SDS011;40161;39.768;2.722;2023-12-20T10:52:05;20.08;;;13.35;;
54247;SDS011;40161;39.768;2.722;2023-12-20T10:54:31;29.98;;;21.27;;
54247;SDS011;40161;39.768;2.722;2023-12-20T10:56:58;35.55;;;25.15;;
54247;SDS011;40161;39.768;2.722;2023-12-20T10:59:25;36.78;;;25.98;;
54247;SDS011;40161;39.768;2.722;2023-12-20T11:01:54;19.42;;;14.57;;
54247;SDS011;40161;39.768;2.722;2023-12-20T11:04:36;11.13;;;6.57;;
54247;SDS011;40161;39.768;2.722;2023-12-20T11:07:12;9.82;;;5.80;;
54247;SDS011;40161;39.768;2.722;2023-12-20T11:09:46;9.35;;;5.63;;
54247;SDS011;40161;39.768;2.722;2023-12-20T11:12:24;10.73;;;6.28;;
54247;SDS011;40161;39.768;2.722;2023-12-20T11:15:03;9.20;;;5.63;;
54247;SDS011;40161;39.768;2.722;2023-12-20T11:17:29;8.68;;;4.90;;
54247;SDS011;40161;39.768;2.722;2023-12-20T11:22:22;10.30;;;4.50;;
54247;SDS011;40161;39.768;2.722;2023-12-20T11:24:49;8.07;;;2.60;;
54247;SDS011;40161;39.768;2.722;2023-12-20T11:27:16;16.33;;;6.93;;
54247;SDS011;40161;39.768;2.722;2023-12-20T11:29:50;12.25;;;3.80;;
54247;SDS011;40161;39.768;2.722;2023-12-20T11:34:58;14.18;;;8.20;;
54247;SDS011;40161;39.768;2.722;2023-12-20T11:37:31;13.35;;;6.05;;
54247;SDS011;40161;39.768;2.722;2023-12-20T11:40:22;12.77;;;6.55;;
54247;SDS011;40161;39.768;2.722;2023-12-20T11:42:49;12.70;;;6.55;;
54247;SDS011;40161;39.768;2.722;2023-12-20T11:45:17;9.90;;;4.85;;
54247;SDS011;40161;39.768;2.722;2023-12-20T11:47:48;10.60;;;4.03;;
54247;SDS011;40161;39.768;2.722;2023-12-20T11:50:15;8.00;;;3.17;;
54247;SDS011;40161;39.768;2.722;2023-12-20T11:52:41;8.65;;;3.85;;
54247;SDS011;40161;39.768;2.722;2023-12-20T11:55:07;13.35;;;5.05;;
54247;SDS011;40161;39.768;2.722;2023-12-20T11:57:33;11.40;;;5.20;;
54247;SDS011;40161;39.768;2.722;2023-12-20T11:59:58;9.85;;;3.47;;
54247;SDS011;40161;39.768;2.722;2023-12-20T12:02:24;4.43;;;2.58;;
54247;SDS011;40161;39.768;2.722;2023-12-20T12:04:50;7.28;;;3.30;;
54247;SDS011;40161;39.768;2.722;2023-12-20T12:07:16;11.52;;;3.90;;
54247;SDS011;40161;39.768;2.722;2023-12-20T12:09:42;6.95;;;3.38;;
54247;SDS011;40161;39.768;2.722;2023-12-20T12:12:09;7.50;;;3.10;;
54247;SDS011;40161;39.768;2.722;2023-12-20T12:14:36;7.80;;;3.42;;
54247;SDS011;40161;39.768;2.722;2023-12-20T12:17:03;7.82;;;2.83;;
54247;SDS011;40161;39.768;2.722;2023-12-20T12:19:29;8.65;;;3.83;;
54247;SDS011;40161;39.768;2.722;2023-12-20T12:24:35;7.85;;;3.30;;
54247;SDS011;40161;39.768;2.722;2023-12-20T12:27:01;7.40;;;2.53;;
54247;SDS011;40161;39.768;2.722;2023-12-20T12:29:27;6.55;;;2.92;;
54247;SDS011;40161;39.768;2.722;2023-12-20T12:31:52;5.55;;;2.78;;
54247;SDS011;40161;39.768;2.722;2023-12-20T12:34:18;7.03;;;2.90;;
54247;SDS011;40161;39.768;2.722;2023-12-20T12:36:44;6.47;;;3.03;;
54247;SDS011;40161;39.768;2.722;2023-12-20T12:39:14;8.55;;;3.28;;
54247;SDS011;40161;39.768;2.722;2023-12-20T12:41:42;7.50;;;3.63;;
54247;SDS011;40161;39.768;2.722;2023-12-20T12:44:08;6.70;;;3.97;;
54247;SDS011;40161;39.768;2.722;2023-12-20T12:46:34;9.38;;;3.53;;
54247;SDS011;40161;39.768;2.722;2023-12-20T12:48:59;8.77;;;4.40;;
54247;SDS011;40161;39.768;2.722;2023-12-20T12:51:25;7.35;;;3.53;;
54247;SDS011;40161;39.768;2.722;2023-12-20T12:53:51;6.88;;;3.03;;
54247;SDS011;40161;39.768;2.722;2023-12-20T12:56:17;8.88;;;4.03;;
54247;SDS011;40161;39.768;2.722;2023-12-20T12:58:42;6.25;;;2.72;;
54247;SDS011;40161;39.768;2.722;2023-12-20T13:01:08;6.43;;;2.65;;
54247;SDS011;40161;39.768;2.722;2023-12-20T13:03:35;5.68;;;2.70;;
54247;SDS011;40161;39.768;2.722;2023-12-20T13:06:00;5.45;;;2.97;;
54247;SDS011;40161;39.768;2.722;2023-12-20T13:08:26;11.95;;;4.05;;
54247;SDS011;40161;39.768;2.722;2023-12-20T13:10:53;9.25;;;4.63;;
54247;SDS011;40161;39.768;2.722;2023-12-20T13:13:20;10.50;;;6.32;;
54247;SDS011;40161;39.768;2.722;2023-12-20T13:15:46;6.65;;;3.67;;
54247;SDS011;40161;39.768;2.722;2023-12-20T13:18:16;6.78;;;3.17;;
54247;SDS011;40161;39.768;2.722;2023-12-20T13:20:43;6.70;;;3.25;;
54247;SDS011;40161;39.768;2.722;2023-12-20T13:23:09;6.15;;;3.58;;
54247;SDS011;40161;39.768;2.722;2023-12-20T13:25:34;6.07;;;2.78;;
54247;SDS011;40161;39.768;2.722;2023-12-20T13:28:00;5.60;;;2.88;;
54247;SDS011;40161;39.768;2.722;2023-12-20T13:30:27;8.35;;;2.92;;
54247;SDS011;40161;39.768;2.722;2023-12-20T13:32:53;6.30;;;2.85;;
54247;SDS011;40161;39.768;2.722;2023-12-20T13:35:19;7.10;;;3.10;;
54247;SDS011;40161;39.768;2.722;2023-12-20T13:37:45;6.75;;;4.10;;
54247;SDS011;40161;39.768;2.722;2023-12-20T13:40:11;7.57;;;4.82;;
54247;SDS011;40161;39.768;2.722;2023-12-20T13:42:38;8.45;;;4.50;;
54247;SDS011;40161;39.768;2.722;2023-12-20T13:45:04;6.60;;;3.45;;
54247;SDS011;40161;39.768;2.722;2023-12-20T13:47:31;7.05;;;3.50;;
54247;SDS011;40161;39.768;2.722;2023-12-20T13:49:57;7.55;;;3.88;;
54247;SDS011;40161;39.768;2.722;2023-12-20T13:52:23;5.55;;;3.45;;
54247;SDS011;40161;39.768;2.722;2023-12-20T13:54:48;6.88;;;4.68;;
54247;SDS011;40161;39.768;2.722;2023-12-20T13:57:14;8.18;;;4.03;;
54247;SDS011;40161;39.768;2.722;2023-12-20T13:59:40;9.27;;;5.75;;
54247;SDS011;40161;39.768;2.722;2023-12-20T14:02:05;9.82;;;5.00;;
54247;SDS011;40161;39.768;2.722;2023-12-20T14:04:31;9.85;;;5.22;;
54247;SDS011;40161;39.768;2.722;2023-12-20T14:06:57;9.70;;;5.50;;
54247;SDS011;40161;39.768;2.722;2023-12-20T14:09:23;10.98;;;5.78;;
54247;SDS011;40161;39.768;2.722;2023-12-20T14:11:48;12.07;;;6.32;;
54247;SDS011;40161;39.768;2.722;2023-12-20T14:14:14;10.50;;;7.03;;
54247;SDS011;40161;39.768;2.722;2023-12-20T14:16:40;9.68;;;6.60;;
54247;SDS011;40161;39.768;2.722;2023-12-20T14:19:06;10.70;;;6.20;;
54247;SDS011;40161;39.768;2.722;2023-12-20T14:21:34;9.60;;;6.15;;
54247;SDS011;40161;39.768;2.722;2023-12-20T14:24:00;9.93;;;5.72;;
54247;SDS011;40161;39.768;2.722;2023-12-20T14:26:25;13.10;;;6.55;;
54247;SDS011;40161;39.768;2.722;2023-12-20T14:28:53;13.85;;;6.30;;
54247;SDS011;40161;39.768;2.722;2023-12-20T14:31:19;9.73;;;6.15;;
54247;SDS011;40161;39.768;2.722;2023-12-20T14:33:44;9.93;;;6.68;;
54247;SDS011;40161;39.768;2.722;2023-12-20T14:36:11;10.65;;;6.45;;
54247;SDS011;40161;39.768;2.722;2023-12-20T14:38:36;11.90;;;7.38;;
54247;SDS011;40161;39.768;2.722;2023-12-20T14:41:02;10.75;;;6.70;;
54247;SDS011;40161;39.768;2.722;2023-12-20T14:43:31;13.20;;;7.28;;
54247;SDS011;40161;39.768;2.722;2023-12-20T14:45:56;12.50;;;7.78;;